Time;durP1;ratioP1;P1;durP2;ratioP2;P2;SDS_P1;SDS_P2;PMS_P1;PMS_P2;Temp;Humidity;BMP_temperature;BMP_pressure;BME280_temperature;BME280_humidity;BME280_pressure;Samples;Min_cycle;Max_cycle;Signal;HPM_P1;HPM_P2
2022/05/23 00:02:00;;;;;;;4.55;3.42;;;;;;;15.42;55.68;95031.66;5088781;28;20483;-81
2022/05/23 00:04:26;;;;;;;6.05;3.65;;;;;;;15.50;55.76;95033.28;5088061;28;20031;-82
2022/05/23 00:06:51;;;;;;;3.95;3.40;;;;;;;15.43;55.95;95030.59;5087339;28;20093;-82
2022/05/23 00:09:17;;;;;;;4.68;4.18;;;;;;;15.45;55.55;95033.94;5086992;28;20410;-82
2022/05/23 00:11:43;;;;;;;5.55;4.22;;;;;;;15.49;55.31;95026.22;5088030;28;20470;-81
2022/05/23 00:14:08;;;;;;;5.07;3.83;;;;;;;15.50;55.29;95026.00;5088175;28;20028;-81
2022/05/23 00:16:38;;;;;;;5.30;3.75;;;;;;;15.44;55.61;95026.88;5087711;28;20107;-81
2022/05/23 00:19:04;;;;;;;4.13;3.47;;;;;;;15.36;55.96;95027.97;5069984;28;20414;-82
2022/05/23 00:21:29;;;;;;;4.30;3.55;;;;;;;15.37;55.60;95023.38;5087645;28;20517;-82
2022/05/23 00:23:55;;;;;;;6.45;4.18;;;;;;;15.35;55.61;95011.97;5088529;28;20398;-82
2022/05/23 00:26:20;;;;;;;4.68;3.88;;;;;;;15.29;55.50;95024.47;5087730;28;20028;-81
2022/05/23 00:28:47;;;;;;;4.80;3.60;;;;;;;15.25;55.70;95023.25;5087004;28;20035;-81
2022/05/23 00:31:12;;;;;;;4.75;4.15;;;;;;;15.14;56.23;95019.34;5087922;28;20020;-82
2022/05/23 00:36:26;;;;;;;7.28;4.03;;;;;;;14.79;58.12;95026.78;5088948;28;20108;-82
2022/05/23 00:38:53;;;;;;;5.05;4.20;;;;;;;14.79;57.56;95025.91;5085800;28;20058;-81
2022/05/23 00:44:41;;;;;;;4.72;3.72;;;;;;;14.90;57.44;95030.69;5087132;28;20460;-82
2022/05/23 00:47:16;;;;;;;7.10;4.30;;;;;;;14.89;57.35;95029.03;5087723;28;20016;-82
2022/05/23 00:49:42;;;;;;;5.45;4.18;;;;;;;14.94;57.07;95026.50;5086452;28;20028;-82
2022/05/23 00:52:09;;;;;;;5.53;4.22;;;;;;;14.94;57.17;95042.69;5085644;28;20048;-81
2022/05/23 00:54:37;;;;;;;6.15;4.30;;;;;;;14.96;57.12;95042.47;5069972;28;20020;-81
2022/05/23 00:57:03;;;;;;;6.45;4.30;;;;;;;14.90;57.08;95032.53;5087330;28;20028;-82
2022/05/23 00:59:30;;;;;;;5.60;4.25;;;;;;;14.91;57.27;95039.63;5069447;28;20035;-81
2022/05/23 01:01:57;;;;;;;6.90;4.80;;;;;;;14.88;57.24;95046.25;5085805;28;20525;-82
2022/05/23 01:04:22;;;;;;;5.95;5.10;;;;;;;14.82;57.31;95036.31;5085865;28;20078;-81
2022/05/23 01:06:48;;;;;;;7.25;5.10;;;;;;;14.80;57.45;95043.78;5086134;28;20028;-82
2022/05/23 01:09:13;;;;;;;7.63;4.70;;;;;;;14.79;57.62;95047.50;5086814;28;20024;-81
2022/05/23 01:11:38;;;;;;;5.43;4.50;;;;;;;14.77;57.50;95044.19;5087674;28;20466;-81
2022/05/23 01:14:05;;;;;;;4.82;4.15;;;;;;;14.76;57.64;95037.97;5086474;28;20028;-81
2022/05/23 01:16:31;;;;;;;5.25;4.43;;;;;;;14.83;57.63;95032.59;5087071;28;20032;-82
2022/05/23 01:18:56;;;;;;;6.63;4.50;;;;;;;14.76;57.83;95031.75;5086187;28;20035;-82
2022/05/23 01:22:02;;;;;;;5.30;4.45;;;;;;;14.74;57.77;95028.41;5086776;28;20024;-82
2022/05/23 01:24:32;;;;;;;5.88;4.57;;;;;;;14.69;58.02;95021.81;5086044;28;20036;-82
2022/05/23 01:26:58;;;;;;;8.65;5.47;;;;;;;14.68;58.01;95017.47;5068828;28;20043;-82
2022/05/23 01:29:23;;;;;;;5.90;4.95;;;;;;;14.72;58.00;95023.25;5085387;28;20027;-81
2022/05/23 01:31:49;;;;;;;6.43;4.63;;;;;;;14.69;57.69;95011.00;5086171;28;20031;-82
2022/05/23 01:34:14;;;;;;;8.02;4.90;;;;;;;14.64;58.38;95010.00;5085879;28;20029;-83
2022/05/23 01:36:40;;;;;;;6.60;4.85;;;;;;;14.59;58.38;95021.41;5085916;28;20024;-81
2022/05/23 01:39:05;;;;;;;7.53;5.68;;;;;;;14.58;58.11;95019.75;5086669;28;20026;-81
2022/05/23 01:41:30;;;;;;;8.48;5.32;;;;;;;14.48;58.52;95024.78;5087389;28;20047;-81
2022/05/23 01:43:56;;;;;;;7.35;5.00;;;;;;;14.48;58.25;95025.59;5086307;28;20470;-81
2022/05/23 01:46:21;;;;;;;6.55;5.38;;;;;;;14.43;58.43;95020.84;5085750;28;20555;-82
2022/05/23 01:48:47;;;;;;;5.80;4.70;;;;;;;14.40;58.58;95026.66;5086841;28;20044;-81
2022/05/23 01:51:12;;;;;;;6.90;5.10;;;;;;;14.41;58.43;95020.22;5086760;28;20063;-82
2022/05/23 01:53:38;;;;;;;5.95;5.35;;;;;;;14.32;58.79;95018.78;5086421;28;20410;-81
2022/05/23 01:56:04;;;;;;;6.82;5.63;;;;;;;14.26;58.59;95012.38;5086582;28;20027;-81
2022/05/23 02:01:14;;;;;;;7.53;5.53;;;;;;;14.15;59.19;95021.94;5070815;28;20841;-83
2022/05/23 02:03:41;;;;;;;5.95;4.82;;;;;;;14.11;59.24;95019.84;5085927;28;20024;-82
2022/05/23 02:06:06;;;;;;;9.40;5.32;;;;;;;14.06;59.23;95020.47;5068045;28;20519;-82
2022/05/23 02:08:32;;;;;;;7.10;5.60;;;;;;;14.01;59.78;95025.69;5085517;28;20020;-83
2022/05/23 02:10:57;;;;;;;7.07;5.38;;;;;;;13.95;59.96;95022.78;5086474;28;20885;-81
2022/05/23 02:13:23;;;;;;;6.00;5.32;;;;;;;13.94;59.81;95023.00;5087106;28;20020;-81
2022/05/23 02:15:48;;;;;;;9.68;5.30;;;;;;;13.89;60.19;95028.19;5086290;28;20023;-81
2022/05/23 02:18:13;;;;;;;8.82;5.40;;;;;;;13.83;60.54;95019.06;5085931;28;20024;-81
2022/05/23 02:20:39;;;;;;;10.77;5.90;;;;;;;13.69;60.96;95034.38;5086794;28;20028;-82
2022/05/23 02:23:04;;;;;;;7.72;5.60;;;;;;;13.55;61.69;95023.63;5084792;28;20085;-81
2022/05/23 02:25:30;;;;;;;8.23;5.32;;;;;;;13.55;61.89;95025.47;5068961;28;20028;-83
2022/05/23 02:27:56;;;;;;;6.43;5.03;;;;;;;13.55;61.41;95020.09;5086280;28;20031;-81
2022/05/23 02:30:21;;;;;;;6.70;5.82;;;;;;;13.54;61.35;95019.25;5086271;28;20051;-81
2022/05/23 02:32:47;;;;;;;6.68;5.35;;;;;;;13.59;61.15;95024.00;5086062;28;20043;-81
2022/05/23 02:35:13;;;;;;;7.40;5.45;;;;;;;13.56;61.28;95019.88;5086477;28;20066;-81
2022/05/23 02:37:39;;;;;;;9.48;5.65;;;;;;;13.58;61.67;95019.66;5086205;28;20024;-81
2022/05/23 02:40:05;;;;;;;7.53;5.50;;;;;;;13.61;61.19;95021.16;5084640;28;20111;-82
2022/05/23 02:42:31;;;;;;;6.13;5.30;;;;;;;13.58;60.89;95031.28;5088678;28;20081;-81
2022/05/23 02:44:56;;;;;;;8.55;4.88;;;;;;;13.55;60.75;95038.94;5089981;28;20020;-81
2022/05/23 02:47:22;;;;;;;7.55;5.18;;;;;;;13.53;60.97;95024.84;5088482;28;20028;-82
2022/05/23 02:49:47;;;;;;;9.25;5.93;;;;;;;13.48;61.89;95023.56;5089805;28;20028;-81
2022/05/23 02:52:13;;;;;;;9.45;5.85;;;;;;;13.54;62.81;95018.44;5089632;28;20109;-81
2022/05/23 02:54:39;;;;;;;11.43;5.53;;;;;;;13.67;63.13;95020.31;5089426;28;20031;-83
2022/05/23 02:57:04;;;;;;;8.23;5.65;;;;;;;13.75;62.82;95016.56;5089836;28;20040;-83
2022/05/23 02:59:30;;;;;;;9.13;5.43;;;;;;;13.81;63.08;95021.13;5089697;28;20374;-81
2022/05/23 03:04:39;;;;;;;6.93;5.28;;;;;;;13.94;63.36;95017.59;5075206;28;20470;-82
2022/05/23 03:07:05;;;;;;;10.88;5.45;;;;;;;13.96;63.65;95013.66;5089371;28;20478;-82
2022/05/23 03:09:32;;;;;;;11.60;5.15;;;;;;;14.05;63.33;95022.38;5088253;28;20024;-82
2022/05/23 03:11:59;;;;;;;7.30;5.22;;;;;;;14.10;63.56;95016.34;5089176;28;20039;-83
2022/05/23 03:14:26;;;;;;;8.90;6.10;;;;;;;14.11;63.63;95015.31;5089856;28;20028;-82
2022/05/23 03:16:51;;;;;;;7.43;5.13;;;;;;;14.21;63.00;95014.88;5089541;28;20088;-83
2022/05/23 03:19:17;;;;;;;7.38;5.32;;;;;;;14.23;61.94;95006.56;5089183;28;20024;-82
2022/05/23 03:27:10;;;;;;;11.65;5.97;;;;;;;14.27;62.51;95000.53;5089326;28;20125;-83
2022/05/23 03:29:35;;;;;;;7.45;5.30;;;;;;;14.34;61.98;95009.47;5087522;28;20024;-82
2022/05/23 03:32:01;;;;;;;7.18;4.90;;;;;;;14.45;61.89;95013.38;5089229;28;20035;-82
2022/05/23 03:34:27;;;;;;;8.13;5.57;;;;;;;14.44;62.50;95006.28;5088959;28;20414;-83
2022/05/23 03:36:52;;;;;;;7.63;5.20;;;;;;;14.48;62.96;95004.00;5071035;28;20024;-83
2022/05/23 03:39:18;;;;;;;8.50;5.68;;;;;;;14.51;62.92;94991.97;5089332;28;20043;-83
2022/05/23 03:41:43;;;;;;;8.60;5.55;;;;;;;14.56;63.22;94979.50;5088392;28;20020;-83
2022/05/23 03:44:08;;;;;;;9.23;5.95;;;;;;;14.65;63.11;94981.97;5088974;28;20032;-82
2022/05/23 03:46:37;;;;;;;8.00;5.35;;;;;;;14.75;62.96;95000.41;5088348;28;20051;-82
2022/05/23 03:49:03;;;;;;;7.43;4.93;;;;;;;14.84;62.17;95001.84;5088889;28;20027;-82
2022/05/23 03:51:28;;;;;;;6.15;5.05;;;;;;;14.91;62.10;95007.22;5088303;28;20044;-83
2022/05/23 03:53:54;;;;;;;9.73;5.32;;;;;;;15.00;61.69;95011.31;5089467;28;20065;-82
2022/05/23 03:56:19;;;;;;;6.43;4.95;;;;;;;15.10;61.12;95004.63;5087402;28;20047;-83
2022/05/23 03:58:45;;;;;;;13.02;5.55;;;;;;;15.22;60.65;95004.78;5086626;28;20032;-82
2022/05/23 04:01:17;;;;;;;5.78;5.15;;;;;;;15.25;60.27;94998.94;5088868;28;20526;-82
2022/05/23 04:03:43;;;;;;;9.32;5.88;;;;;;;15.28;60.22;94996.59;5088632;28;20056;-83
2022/05/23 04:06:08;;;;;;;8.90;4.85;;;;;;;15.32;59.50;94986.19;5088485;28;20035;-85
2022/05/23 04:08:35;;;;;;;6.65;5.25;;;;;;;15.37;59.01;94983.69;5086368;28;20020;-82
2022/05/23 04:11:00;;;;;;;8.55;5.07;;;;;;;15.41;58.63;94987.59;5088230;28;20078;-83
2022/05/23 04:13:27;;;;;;;6.30;4.88;;;;;;;15.50;58.57;95006.25;5070069;28;20024;-82
2022/05/23 04:15:52;;;;;;;6.25;4.82;;;;;;;15.60;58.17;95005.75;5088072;28;20044;-82
2022/05/23 04:18:18;;;;;;;6.38;5.22;;;;;;;15.82;57.59;95007.06;5088453;28;20495;-81
2022/05/23 04:20:43;;;;;;;9.45;6.30;;;;;;;16.09;56.93;95007.91;5086267;28;20383;-83
2022/05/23 04:23:09;;;;;;;8.00;5.30;;;;;;;15.99;57.24;95003.00;5086930;28;20471;-82
2022/05/23 04:25:41;;;;;;;6.90;5.00;;;;;;;15.98;57.63;94993.22;5087424;28;20070;-83
2022/05/23 04:28:07;;;;;;;8.33;5.30;;;;;;;15.94;57.99;94995.53;5086490;28;20024;-85
2022/05/23 04:30:33;;;;;;;7.50;5.28;;;;;;;15.96;57.97;95003.41;5086400;28;20043;-82
2022/05/23 04:35:42;;;;;;;6.85;4.85;;;;;;;15.96;58.34;94996.09;5086810;28;20035;-82
2022/05/23 04:38:08;;;;;;;5.13;4.43;;;;;;;15.99;58.36;95000.28;5087310;28;20023;-82
2022/05/23 04:40:34;;;;;;;8.52;4.88;;;;;;;15.93;58.70;94994.69;5087485;28;20108;-82
2022/05/23 04:43:00;;;;;;;7.25;5.07;;;;;;;16.01;58.73;94993.59;5087081;28;20111;-83
2022/05/23 04:45:25;;;;;;;6.43;5.30;;;;;;;16.06;58.91;94995.63;5087510;28;20027;-82
2022/05/23 04:50:35;;;;;;;6.57;5.13;;;;;;;16.29;58.65;94989.59;5085814;28;20048;-82
2022/05/23 04:53:01;;;;;;;7.63;5.50;;;;;;;16.34;59.03;94985.38;5087145;28;20024;-83
2022/05/23 04:55:26;;;;;;;8.50;5.80;;;;;;;16.74;57.68;94987.63;5085829;28;20043;-83
2022/05/23 04:57:53;;;;;;;8.68;5.70;;;;;;;17.05;56.61;94995.81;5085855;28;20039;-82
2022/05/23 05:00:19;;;;;;;5.20;4.70;;;;;;;17.22;56.61;94989.78;5086889;28;20032;-82
2022/05/23 05:02:45;;;;;;;7.43;5.97;;;;;;;17.07;56.77;94988.28;5086230;28;20028;-82
2022/05/23 05:05:11;;;;;;;6.68;4.85;;;;;;;16.98;56.96;94982.34;5068572;28;20032;-82
2022/05/23 05:07:36;;;;;;;9.43;5.28;;;;;;;16.99;56.63;94983.16;5087056;28;20071;-81
2022/05/23 05:10:03;;;;;;;6.15;5.40;;;;;;;16.97;57.03;94975.28;5085640;28;20032;-82
2022/05/23 05:12:28;;;;;;;7.82;5.30;;;;;;;16.91;57.25;94982.41;5085650;28;20058;-82
2022/05/23 05:14:54;;;;;;;5.40;4.90;;;;;;;16.91;57.24;94973.47;5086941;28;20112;-84
2022/05/23 05:17:19;;;;;;;7.65;5.25;;;;;;;16.95;57.45;94973.84;5086710;28;20035;-84
2022/05/23 05:19:45;;;;;;;6.63;4.80;;;;;;;17.52;55.41;94969.94;5087172;28;20028;-85
2022/05/23 05:22:10;;;;;;;9.85;5.22;;;;;;;17.92;54.53;94966.59;5085334;28;20036;-83
2022/05/23 05:24:36;;;;;;;6.78;4.95;;;;;;;18.19;54.19;94965.31;5086665;28;20102;-84
2022/05/23 05:27:01;;;;;;;8.80;5.15;;;;;;;18.52;53.49;94958.41;5085464;28;20460;-84
2022/05/23 05:29:27;;;;;;;6.03;4.68;;;;;;;18.83;52.41;94951.97;5085737;28;20024;-84
2022/05/23 05:32:00;;;;;;;8.07;4.32;;;;;;;19.03;51.66;94951.53;5068731;28;20025;-86
2022/05/23 05:34:39;;;;;;;7.90;4.30;;;;;;;19.29;50.43;94959.38;5085315;28;20528;-84
2022/05/23 05:37:07;;;;;;;7.32;4.28;;;;;;;19.19;50.14;94965.44;5086545;28;20067;-82
2022/05/23 05:39:32;;;;;;;6.63;4.57;;;;;;;18.91;51.47;94976.03;5085243;28;20490;-83
2022/05/23 05:42:05;;;;;;;6.25;4.35;;;;;;;18.82;51.43;94978.31;5085324;28;20031;-84
2022/05/23 05:44:33;;;;;;;8.02;3.92;;;;;;;18.81;51.64;94983.97;5086896;28;20028;-83
2022/05/23 05:47:00;;;;;;;9.45;4.30;;;;;;;18.80;51.17;94991.28;5085141;28;20051;-84
2022/05/23 05:49:27;;;;;;;5.85;4.30;;;;;;;19.32;49.67;94988.78;5085616;28;20410;-86
2022/05/23 05:51:54;;;;;;;5.35;3.80;;;;;;;19.48;49.43;94985.28;5068043;28;20055;-83
2022/05/23 05:54:21;;;;;;;8.02;4.20;;;;;;;19.14;50.59;94996.91;5085362;28;20047;-83
2022/05/23 05:56:48;;;;;;;12.38;4.30;;;;;;;19.37;50.15;94989.72;5068545;28;20058;-85
2022/05/23 05:59:13;;;;;;;5.75;4.25;;;;;;;19.87;48.83;94992.75;5086451;28;20109;-81
2022/05/23 06:01:40;;;;;;;4.75;3.42;;;;;;;19.87;49.07;94987.31;5086460;28;20457;-83
2022/05/23 06:04:06;;;;;;;5.68;3.53;;;;;;;19.84;49.13;94970.63;5086118;28;20052;-85
2022/05/23 06:11:59;;;;;;;3.97;3.42;;;;;;;19.92;49.44;94972.13;5086786;28;20119;-85
2022/05/23 06:14:25;;;;;;;5.47;3.90;;;;;;;19.93;49.00;94968.31;5085829;28;20032;-86
2022/05/23 06:16:50;;;;;;;7.32;3.60;;;;;;;20.28;47.69;94961.78;5085278;28;20020;-84
2022/05/23 06:19:15;;;;;;;7.93;3.28;;;;;;;20.23;47.68;94962.53;5086157;28;20020;-84
2022/05/23 06:21:41;;;;;;;3.58;2.60;;;;;;;20.29;46.00;94952.56;5085939;28;20020;-84
2022/05/23 06:24:07;;;;;;;8.80;3.40;;;;;;;20.58;46.10;94962.47;5068238;28;20024;-84
2022/05/23 06:26:32;;;;;;;5.95;2.95;;;;;;;20.84;45.01;94955.47;5084813;28;20052;-84
2022/05/23 06:28:58;;;;;;;7.78;2.75;;;;;;;21.08;44.88;94955.22;5084799;28;20620;-85
2022/05/23 06:31:23;;;;;;;3.38;2.33;;;;;;;21.40;42.20;94942.72;5084229;28;20032;-84
2022/05/23 06:33:49;;;;;;;4.32;2.17;;;;;;;21.58;39.43;94936.06;5084773;28;20032;-84
2022/05/23 06:36:16;;;;;;;2.47;1.50;;;;;;;21.72;38.79;94938.34;5086438;28;20070;-84
2022/05/23 06:38:44;;;;;;;3.83;1.60;;;;;;;21.79;38.33;94930.81;5085960;28;20028;-83
2022/05/23 06:41:10;;;;;;;4.72;1.48;;;;;;;21.97;37.54;94932.28;5086514;28;20462;-84
2022/05/23 06:43:36;;;;;;;4.53;1.45;;;;;;;22.01;38.04;94932.59;5067507;28;20028;-84
2022/05/23 06:46:02;;;;;;;5.32;2.08;;;;;;;22.22;38.05;94936.28;5086601;28;20120;-86
2022/05/23 06:48:28;;;;;;;5.40;2.05;;;;;;;22.37;36.80;94926.53;5066972;28;20035;-83
2022/05/23 06:50:53;;;;;;;3.83;1.90;;;;;;;22.45;37.52;94926.03;5084574;28;20064;-84
2022/05/23 06:53:22;;;;;;;4.97;2.20;;;;;;;22.64;37.87;94924.78;5067079;28;20032;-85
2022/05/23 06:55:47;;;;;;;4.30;2.00;;;;;;;22.65;36.08;94918.25;5085826;28;20035;-82
2022/05/23 06:58:13;;;;;;;4.03;1.70;;;;;;;22.69;35.68;94927.53;5085871;28;20028;-83
2022/05/23 07:00:38;;;;;;;4.22;1.60;;;;;;;22.75;35.48;94923.72;5084067;28;20028;-84
2022/05/23 07:03:04;;;;;;;6.18;1.73;;;;;;;22.76;35.30;94930.88;5067740;28;20059;-84
2022/05/23 07:13:44;;;;;;;5.05;1.60;;;;;;;22.72;34.92;94924.28;5084035;28;20039;-83
2022/05/23 07:16:09;;;;;;;2.83;1.60;;;;;;;22.86;35.17;94919.13;5085710;28;20028;-84
2022/05/23 07:18:35;;;;;;;8.82;1.88;;;;;;;22.81;34.22;94928.13;5066881;28;20024;-82
2022/05/23 07:21:03;;;;;;;6.35;1.80;;;;;;;22.77;34.22;94931.66;5086043;28;20028;-84
2022/05/23 07:23:30;;;;;;;3.45;1.52;;;;;;;22.90;34.99;94924.88;5085083;28;20028;-84
2022/05/23 07:25:55;;;;;;;5.28;1.95;;;;;;;22.96;34.56;94918.34;5084474;28;20024;-84
2022/05/23 07:28:21;;;;;;;3.17;1.50;;;;;;;22.64;34.80;94924.78;5087184;28;20020;-84
2022/05/23 07:30:46;;;;;;;4.97;1.55;;;;;;;22.57;34.17;94922.28;5087399;28;20032;-84
2022/05/23 07:33:12;;;;;;;4.25;1.90;;;;;;;22.38;34.67;94921.88;5070990;28;20023;-83
2022/05/23 07:35:37;;;;;;;6.30;1.70;;;;;;;22.48;35.16;94924.69;5088572;28;20031;-83
2022/05/23 07:38:03;;;;;;;3.15;1.58;;;;;;;22.44;34.93;94908.00;5089150;28;20021;-84
2022/05/23 07:40:37;;;;;;;2.28;1.52;;;;;;;22.46;34.77;94916.75;5070160;28;20024;-83
2022/05/23 07:43:02;;;;;;;3.78;1.90;;;;;;;22.60;33.65;94895.25;5088350;28;20032;-84
2022/05/23 07:45:28;;;;;;;3.60;1.60;;;;;;;22.72;34.18;94918.81;5088811;28;20024;-85
2022/05/23 07:47:53;;;;;;;4.07;1.90;;;;;;;22.84;33.79;94910.38;5088019;28;20287;-84
2022/05/23 07:50:19;;;;;;;6.00;1.45;;;;;;;22.97;33.40;94909.06;5087342;28;20040;-83
2022/05/23 08:00:31;;;;;;;7.63;1.95;;;;;;;22.95;33.50;94911.22;5088198;28;20019;-84
2022/05/23 08:00:58;;;;;;;3.35;1.52;;;;;;;23.07;33.21;94916.47;5087736;28;20128;-83
2022/05/23 08:03:23;;;;;;;4.38;1.60;;;;;;;23.31;32.87;94921.44;5088764;28;20441;-84
2022/05/23 08:05:49;;;;;;;3.97;1.50;;;;;;;23.51;31.92;94912.47;5086582;28;20472;-84
2022/05/23 08:08:14;;;;;;;3.65;1.45;;;;;;;23.42;32.49;94919.56;5088638;28;20380;-82
2022/05/23 08:10:40;;;;;;;3.25;1.33;;;;;;;23.52;31.33;94919.56;5086441;28;20024;-83
2022/05/23 08:13:11;;;;;;;3.72;1.50;;;;;;;23.24;31.67;94901.72;5087287;28;20028;-84
2022/05/23 08:15:37;;;;;;;8.47;1.90;;;;;;;23.50;30.89;94916.31;5071131;28;20610;-83
2022/05/23 08:18:04;;;;;;;8.15;1.55;;;;;;;23.66;30.78;94916.28;5086346;28;20032;-83
2022/05/23 08:20:30;;;;;;;3.28;1.30;;;;;;;23.73;30.37;94913.28;5088568;28;20028;-84
2022/05/23 08:22:57;;;;;;;2.20;1.33;;;;;;;23.91;30.87;94906.41;5087658;28;20056;-84
2022/05/23 08:25:23;;;;;;;2.95;1.23;;;;;;;23.65;30.73;94900.97;5087122;28;20734;-84
2022/05/23 08:27:49;;;;;;;2.80;1.23;;;;;;;23.50;30.85;94910.00;5086370;28;20023;-85
2022/05/23 08:30:14;;;;;;;3.13;1.30;;;;;;;23.53;30.33;94931.34;5069957;28;20084;-83
2022/05/23 08:32:40;;;;;;;2.53;1.20;;;;;;;23.40;30.56;94905.34;5086272;28;20032;-84
2022/05/23 08:35:08;;;;;;;6.72;1.58;;;;;;;23.26;30.94;94905.84;5087733;28;20028;-84
2022/05/23 08:37:34;;;;;;;2.33;1.33;;;;;;;23.21;30.99;94914.84;5087984;28;20400;-84
2022/05/23 08:39:59;;;;;;;3.15;1.40;;;;;;;23.44;29.99;94914.66;5085170;28;20470;-85
2022/05/23 08:42:24;;;;;;;3.75;1.10;;;;;;;23.24;31.54;94901.72;5086720;28;20040;-85
2022/05/23 08:45:23;;;;;;;8.07;1.50;;;;;;;23.03;30.00;94915.34;5087272;28;20043;-86
2022/05/23 08:47:58;;;;;;;2.33;1.17;;;;;;;22.82;30.26;94912.56;5077682;28;20071;-83
2022/05/23 08:50:45;;;;;;;3.67;1.20;;;;;;;22.71;30.37;94912.50;5087272;28;20123;-85
2022/05/23 08:53:36;;;;;;;4.32;1.52;;;;;;;22.69;30.67;94916.59;5055329;28;20044;-83
2022/05/23 08:56:04;;;;;;;2.47;1.25;;;;;;;22.67;30.12;94916.88;5086908;28;20021;-84
2022/05/23 08:58:46;;;;;;;5.03;1.70;;;;;;;22.50;31.03;94905.28;5069593;28;20514;-83
2022/05/23 09:01:18;;;;;;;4.32;1.67;;;;;;;22.44;32.36;94909.91;5069361;28;20149;-82
2022/05/23 09:04:13;;;;;;;4.10;1.85;;;;;;;22.32;31.79;94910.13;5069869;28;20031;-84
2022/05/23 09:06:49;;;;;;;5.55;1.40;;;;;;;22.32;31.38;94897.28;5085926;28;20028;-87
2022/05/23 09:09:19;;;;;;;2.50;1.27;;;;;;;22.27;30.65;94894.53;5069608;28;20032;-83
2022/05/23 09:11:46;;;;;;;3.03;1.48;;;;;;;22.26;30.76;94895.63;5069228;28;20521;-85
2022/05/23 09:14:13;;;;;;;6.68;1.50;;;;;;;22.20;31.89;94902.13;5068811;28;20489;-82
2022/05/23 09:16:41;;;;;;;2.03;1.30;;;;;;;22.22;32.10;94889.03;5087594;28;20202;-84
2022/05/23 09:19:32;;;;;;;3.28;1.20;;;;;;;22.15;31.75;94883.00;5068847;28;20024;-83
2022/05/23 09:22:17;;;;;;;7.85;2.08;;;;;;;22.12;31.38;94891.72;5070472;28;20080;-84
2022/05/23 09:24:47;;;;;;;4.43;1.48;;;;;;;22.15;31.91;94893.91;5069321;28;20086;-83
2022/05/23 09:27:20;;;;;;;4.13;1.40;;;;;;;22.16;31.74;94884.63;5085409;28;20055;-84
2022/05/23 09:29:50;;;;;;;4.00;1.40;;;;;;;22.37;32.87;94879.28;5086085;28;20169;-84
2022/05/23 09:32:17;;;;;;;4.97;1.63;;;;;;;22.65;31.20;94875.31;5068531;28;20422;-83
2022/05/23 09:34:48;;;;;;;3.53;1.48;;;;;;;22.88;31.42;94881.41;5086235;28;20020;-84
2022/05/23 09:37:24;;;;;;;3.67;1.50;;;;;;;23.08;31.06;94866.97;5084948;28;20085;-83
2022/05/23 09:39:54;;;;;;;7.38;1.55;;;;;;;23.18;31.05;94860.69;5087004;28;20032;-83
2022/05/23 09:48:07;;;;;;;3.78;1.42;;;;;;;23.36;30.93;94874.13;5085664;28;20082;-83
2022/05/23 09:50:38;;;;;;;4.90;1.63;;;;;;;23.40;31.54;94872.50;5086333;28;20476;-84
2022/05/23 09:53:04;;;;;;;5.20;1.95;;;;;;;23.49;30.66;94859.09;5086384;28;20032;-83
2022/05/23 09:55:34;;;;;;;3.35;1.60;;;;;;;23.51;30.44;94855.00;5068297;28;20030;-84
2022/05/23 09:58:05;;;;;;;7.13;1.83;;;;;;;23.53;31.15;94858.28;5085245;28;20057;-84
2022/05/23 10:00:53;;;;;;;6.65;1.77;;;;;;;23.61;30.73;94854.16;5068611;28;20024;-84
2022/05/23 10:03:19;;;;;;;3.47;1.60;;;;;;;23.62;31.09;94846.78;5070103;28;20055;-83
2022/05/23 10:05:50;;;;;;;2.83;1.58;;;;;;;23.62;30.35;94846.78;5086453;28;20059;-83
2022/05/23 10:08:27;;;;;;;2.83;1.50;;;;;;;23.64;30.48;94852.78;5084871;28;20024;-84
2022/05/23 10:11:05;;;;;;;19.30;2.72;;;;;;;23.63;30.10;94853.91;5086170;28;20510;-83
2022/05/23 10:13:33;;;;;;;4.20;1.30;;;;;;;23.53;29.69;94850.06;5086301;28;20521;-83
2022/05/23 10:16:08;;;;;;;6.15;1.42;;;;;;;23.55;30.25;94853.34;5051298;28;20506;-84
2022/05/23 10:18:35;;;;;;;7.18;1.50;;;;;;;23.63;30.03;94845.69;5086458;28;20585;-83
2022/05/23 10:21:01;;;;;;;5.50;1.50;;;;;;;23.50;30.19;94850.63;5068060;28;20034;-84
2022/05/23 10:23:29;;;;;;;2.17;1.20;;;;;;;23.55;30.73;94830.66;5085648;28;20491;-86
2022/05/23 10:26:21;;;;;;;4.05;1.40;;;;;;;23.59;29.98;94848.13;5085008;28;20032;-83
2022/05/23 10:29:15;;;;;;;2.87;1.00;;;;;;;23.69;30.42;94837.19;5084315;28;20036;-86
2022/05/23 10:32:02;;;;;;;4.60;1.50;;;;;;;23.77;30.26;94838.56;5084912;28;20089;-85
2022/05/23 10:34:33;;;;;;;3.58;1.50;;;;;;;23.89;30.32;94823.75;5084703;28;20035;-84
2022/05/23 10:37:01;;;;;;;2.78;1.40;;;;;;;23.92;29.66;94831.41;5084556;28;20063;-85
2022/05/23 10:42:31;;;;;;;2.80;1.40;;;;;;;23.96;29.93;94824.28;5084961;28;20039;-84
2022/05/23 10:45:15;;;;;;;3.67;1.42;;;;;;;24.04;30.72;94814.66;5084847;28;20512;-85
2022/05/23 10:47:56;;;;;;;3.95;1.80;;;;;;;24.12;30.01;94821.50;5085823;28;20032;-84
2022/05/23 10:50:26;;;;;;;3.67;1.40;;;;;;;24.20;30.36;94809.97;5085585;28;20056;-84
2022/05/23 10:53:04;;;;;;;5.72;1.33;;;;;;;24.15;29.43;94818.22;5067918;28;20039;-85
2022/05/23 10:55:59;;;;;;;2.20;1.17;;;;;;;24.16;29.31;94801.53;5084334;28;20036;-85
2022/05/23 10:58:47;;;;;;;3.58;1.15;;;;;;;24.24;29.31;94816.56;5075379;28;20032;-85
2022/05/23 11:02:04;;;;;;;4.47;1.50;;;;;;;24.32;29.14;94807.78;5086065;28;20034;-83
2022/05/23 11:04:35;;;;;;;4.90;1.45;;;;;;;24.39;29.47;94812.13;5043915;28;20215;-84
2022/05/23 11:07:19;;;;;;;5.65;1.38;;;;;;;24.42;29.31;94808.81;5089516;28;20533;-82
2022/05/23 11:09:47;;;;;;;2.00;1.33;;;;;;;24.44;29.39;94810.16;5089280;28;20403;-85
2022/05/23 11:12:35;;;;;;;1.83;1.20;;;;;;;24.59;29.89;94799.41;5088059;28;20020;-87
2022/05/23 11:15:09;;;;;;;3.75;1.60;;;;;;;24.69;29.36;94808.41;5088190;28;20020;-84
2022/05/23 11:17:56;;;;;;;2.97;1.48;;;;;;;24.81;29.38;94810.78;5087993;28;20024;-84
2022/05/23 11:20:26;;;;;;;2.90;1.48;;;;;;;24.83;29.51;94802.28;5087779;28;20028;-85
2022/05/23 11:23:10;;;;;;;2.45;1.33;;;;;;;24.94;29.10;94803.88;5089663;28;20040;-84
2022/05/23 11:25:38;;;;;;;3.88;1.60;;;;;;;24.92;28.86;94805.28;5088462;28;20415;-84
2022/05/23 11:34:39;;;;;;;3.53;1.30;;;;;;;25.12;28.83;94800.75;5073441;28;20089;-85
2022/05/23 11:39:52;;;;;;;3.53;1.50;;;;;;;25.24;28.89;94795.72;5089392;28;20028;-82
2022/05/23 11:42:29;;;;;;;2.40;1.40;;;;;;;25.25;28.65;94810.25;5087226;28;20110;-81
2022/05/23 11:47:56;;;;;;;3.55;1.55;;;;;;;25.45;28.27;94806.53;5089017;28;20066;-84
2022/05/23 11:50:32;;;;;;;3.20;1.63;;;;;;;25.46;28.28;94794.44;5088489;28;20040;-85
2022/05/23 11:53:10;;;;;;;2.70;1.25;;;;;;;25.38;28.43;94795.06;5088785;28;20449;-83
2022/05/23 11:55:51;;;;;;;6.15;1.63;;;;;;;25.56;28.49;94807.25;5088746;28;20106;-82
2022/05/23 11:58:17;;;;;;;4.10;1.73;;;;;;;25.66;28.17;94793.47;5088734;28;20028;-84
2022/05/23 12:00:43;;;;;;;7.25;1.60;;;;;;;25.69;28.26;94800.31;5086797;28;20034;-83
2022/05/23 12:03:11;;;;;;;3.33;1.40;;;;;;;25.71;27.95;94803.59;5053300;28;20020;-84
2022/05/23 12:05:37;;;;;;;3.30;1.40;;;;;;;25.88;27.04;94808.63;5088787;28;20102;-82
2022/05/23 12:08:06;;;;;;;3.30;1.50;;;;;;;25.89;27.83;94802.03;5087855;28;20076;-84
2022/05/23 12:10:36;;;;;;;3.78;1.50;;;;;;;25.91;27.48;94802.56;5070798;28;20032;-83
2022/05/23 12:13:11;;;;;;;8.98;1.98;;;;;;;26.01;27.81;94803.56;5087790;28;20032;-84
2022/05/23 12:15:42;;;;;;;2.60;1.40;;;;;;;25.99;27.54;94784.63;5087167;28;20043;-83
2022/05/23 12:18:12;;;;;;;4.23;1.57;;;;;;;26.17;27.18;94784.97;5088131;28;20649;-84
2022/05/23 12:20:45;;;;;;;3.60;1.52;;;;;;;26.27;26.85;94787.59;5088244;28;20034;-85
2022/05/23 12:23:17;;;;;;;3.15;1.33;;;;;;;26.25;26.84;94789.00;5088557;28;20115;-85
2022/05/23 12:25:42;;;;;;;3.90;1.45;;;;;;;26.38;27.55;94784.75;5086804;28;20491;-85
2022/05/23 12:28:10;;;;;;;3.97;1.60;;;;;;;26.53;27.26;94780.97;5088036;28;20119;-83
2022/05/23 12:30:41;;;;;;;4.05;1.40;;;;;;;26.62;26.69;94783.88;5086202;28;20085;-83
2022/05/23 12:33:33;;;;;;;3.45;1.55;;;;;;;26.59;27.24;94778.97;5086510;28;20136;-86
2022/05/23 12:35:59;;;;;;;5.57;1.67;;;;;;;26.66;26.43;94791.22;5083823;28;20430;-85
2022/05/23 12:38:45;;;;;;;3.40;1.40;;;;;;;26.71;26.05;94782.13;5069725;28;20029;-83
2022/05/23 12:41:32;;;;;;;9.02;1.70;;;;;;;26.71;26.25;94778.53;5087993;28;20047;-83
2022/05/23 12:44:25;;;;;;;5.53;1.70;;;;;;;26.61;26.57;94783.09;5087502;28;20086;-84
2022/05/23 12:47:04;;;;;;;4.50;1.42;;;;;;;26.58;25.91;94782.84;5087747;28;20031;-84